sensor_id;sensor_type;location;lat;lon;timestamp;P1;durP1;ratioP1;P2;durP2;ratioP2
14611;SDS011;7392;52.078;11.650;2023-05-07T00:01:00;5.53;;;4.33;;
14611;SDS011;7392;52.078;11.650;2023-05-07T00:03:28;7.27;;;4.47;;
14611;SDS011;7392;52.078;11.650;2023-05-07T00:05:57;4.77;;;4.27;;
14611;SDS011;7392;52.078;11.650;2023-05-07T00:08:25;4.90;;;4.37;;
14611;SDS011;7392;52.078;11.650;2023-05-07T00:10:53;5.53;;;4.60;;
14611;SDS011;7392;52.078;11.650;2023-05-07T00:13:21;4.47;;;4.07;;
14611;SDS011;7392;52.078;11.650;2023-05-07T00:15:50;4.37;;;3.97;;
14611;SDS011;7392;52.078;11.650;2023-05-07T00:18:19;5.13;;;4.63;;
14611;SDS011;7392;52.078;11.650;2023-05-07T00:20:49;4.53;;;4.10;;
14611;SDS011;7392;52.078;11.650;2023-05-07T00:25:55;5.40;;;4.63;;
14611;SDS011;7392;52.078;11.650;2023-05-07T00:28:23;4.70;;;4.30;;
14611;SDS011;7392;52.078;11.650;2023-05-07T00:30:52;4.47;;;4.07;;
14611;SDS011;7392;52.078;11.650;2023-05-07T00:33:20;4.83;;;4.43;;
14611;SDS011;7392;52.078;11.650;2023-05-07T00:35:48;4.60;;;4.13;;
14611;SDS011;7392;52.078;11.650;2023-05-07T00:38:16;5.20;;;4.37;;
14611;SDS011;7392;52.078;11.650;2023-05-07T00:40:44;4.77;;;4.37;;
14611;SDS011;7392;52.078;11.650;2023-05-07T00:43:12;5.00;;;4.47;;
14611;SDS011;7392;52.078;11.650;2023-05-07T00:45:40;4.50;;;4.10;;
14611;SDS011;7392;52.078;11.650;2023-05-07T00:48:09;4.47;;;4.07;;
14611;SDS011;7392;52.078;11.650;2023-05-07T00:50:37;4.47;;;4.07;;
14611;SDS011;7392;52.078;11.650;2023-05-07T00:53:05;4.10;;;3.80;;
14611;SDS011;7392;52.078;11.650;2023-05-07T00:55:34;4.23;;;3.80;;
14611;SDS011;7392;52.078;11.650;2023-05-07T00:58:03;4.27;;;3.87;;
14611;SDS011;7392;52.078;11.650;2023-05-07T01:00:31;4.10;;;3.70;;
14611;SDS011;7392;52.078;11.650;2023-05-07T01:02:59;3.60;;;3.30;;
14611;SDS011;7392;52.078;11.650;2023-05-07T01:05:29;3.77;;;3.47;;
14611;SDS011;7392;52.078;11.650;2023-05-07T01:07:58;3.50;;;3.17;;
14611;SDS011;7392;52.078;11.650;2023-05-07T01:10:27;3.53;;;3.23;;
14611;SDS011;7392;52.078;11.650;2023-05-07T01:12:57;3.90;;;3.40;;
14611;SDS011;7392;52.078;11.650;2023-05-07T01:15:26;3.97;;;3.67;;
14611;SDS011;7392;52.078;11.650;2023-05-07T01:17:56;3.63;;;3.33;;
14611;SDS011;7392;52.078;11.650;2023-05-07T01:20:32;3.43;;;3.10;;
14611;SDS011;7392;52.078;11.650;2023-05-07T01:23:02;3.50;;;3.20;;
14611;SDS011;7392;52.078;11.650;2023-05-07T01:25:31;2.90;;;2.70;;
14611;SDS011;7392;52.078;11.650;2023-05-07T01:28:00;3.50;;;3.20;;
14611;SDS011;7392;52.078;11.650;2023-05-07T01:30:32;4.97;;;4.47;;
14611;SDS011;7392;52.078;11.650;2023-05-07T01:33:06;4.50;;;4.10;;
14611;SDS011;7392;52.078;11.650;2023-05-07T01:35:38;4.20;;;3.80;;
14611;SDS011;7392;52.078;11.650;2023-05-07T01:38:09;4.37;;;3.97;;
14611;SDS011;7392;52.078;11.650;2023-05-07T01:40:37;4.60;;;4.03;;
14611;SDS011;7392;52.078;11.650;2023-05-07T01:43:05;3.67;;;3.37;;
14611;SDS011;7392;52.078;11.650;2023-05-07T01:45:35;4.03;;;3.70;;
14611;SDS011;7392;52.078;11.650;2023-05-07T01:48:03;4.20;;;3.80;;
14611;SDS011;7392;52.078;11.650;2023-05-07T01:50:32;4.57;;;4.17;;
14611;SDS011;7392;52.078;11.650;2023-05-07T01:53:02;4.23;;;3.90;;
14611;SDS011;7392;52.078;11.650;2023-05-07T01:55:31;4.57;;;4.07;;
14611;SDS011;7392;52.078;11.650;2023-05-07T01:57:59;4.70;;;4.30;;
14611;SDS011;7392;52.078;11.650;2023-05-07T02:00:27;3.90;;;3.50;;
14611;SDS011;7392;52.078;11.650;2023-05-07T02:02:55;4.80;;;4.30;;
14611;SDS011;7392;52.078;11.650;2023-05-07T02:05:38;5.17;;;4.27;;
14611;SDS011;7392;52.078;11.650;2023-05-07T02:08:13;3.80;;;3.40;;
14611;SDS011;7392;52.078;11.650;2023-05-07T02:10:42;4.13;;;3.70;;
14611;SDS011;7392;52.078;11.650;2023-05-07T02:13:10;4.30;;;3.90;;
14611;SDS011;7392;52.078;11.650;2023-05-07T02:15:38;4.37;;;3.97;;
14611;SDS011;7392;52.078;11.650;2023-05-07T02:18:07;4.13;;;3.73;;
14611;SDS011;7392;52.078;11.650;2023-05-07T02:20:36;4.13;;;3.73;;
14611;SDS011;7392;52.078;11.650;2023-05-07T02:23:04;4.33;;;3.93;;
14611;SDS011;7392;52.078;11.650;2023-05-07T02:25:32;4.00;;;3.60;;
14611;SDS011;7392;52.078;11.650;2023-05-07T02:28:02;3.53;;;3.23;;
14611;SDS011;7392;52.078;11.650;2023-05-07T02:30:52;3.80;;;3.40;;
14611;SDS011;7392;52.078;11.650;2023-05-07T02:33:20;4.00;;;3.70;;
14611;SDS011;7392;52.078;11.650;2023-05-07T02:35:48;3.83;;;3.43;;
14611;SDS011;7392;52.078;11.650;2023-05-07T02:38:18;3.70;;;3.40;;
14611;SDS011;7392;52.078;11.650;2023-05-07T02:40:46;4.00;;;3.60;;
14611;SDS011;7392;52.078;11.650;2023-05-07T02:43:16;3.53;;;3.23;;
14611;SDS011;7392;52.078;11.650;2023-05-07T02:45:46;3.40;;;3.10;;
14611;SDS011;7392;52.078;11.650;2023-05-07T02:48:15;3.73;;;3.37;;
14611;SDS011;7392;52.078;11.650;2023-05-07T02:50:42;3.90;;;3.60;;
14611;SDS011;7392;52.078;11.650;2023-05-07T02:53:12;3.63;;;3.33;;
14611;SDS011;7392;52.078;11.650;2023-05-07T02:55:40;4.00;;;3.60;;
14611;SDS011;7392;52.078;11.650;2023-05-07T02:58:08;4.17;;;3.77;;
14611;SDS011;7392;52.078;11.650;2023-05-07T03:00:39;5.17;;;4.50;;
14611;SDS011;7392;52.078;11.650;2023-05-07T03:03:17;4.67;;;4.27;;
14611;SDS011;7392;52.078;11.650;2023-05-07T03:05:45;4.57;;;4.17;;
14611;SDS011;7392;52.078;11.650;2023-05-07T03:08:13;4.13;;;3.77;;
14611;SDS011;7392;52.078;11.650;2023-05-07T03:10:41;4.40;;;4.00;;
14611;SDS011;7392;52.078;11.650;2023-05-07T03:13:09;4.53;;;4.13;;
14611;SDS011;7392;52.078;11.650;2023-05-07T03:15:37;5.90;;;5.30;;
14611;SDS011;7392;52.078;11.650;2023-05-07T03:18:07;5.90;;;4.67;;
14611;SDS011;7392;52.078;11.650;2023-05-07T03:20:35;5.07;;;4.57;;
14611;SDS011;7392;52.078;11.650;2023-05-07T03:23:03;6.20;;;4.83;;
14611;SDS011;7392;52.078;11.650;2023-05-07T03:25:31;4.90;;;4.40;;
14611;SDS011;7392;52.078;11.650;2023-05-07T03:27:59;5.47;;;4.90;;
14611;SDS011;7392;52.078;11.650;2023-05-07T03:30:35;5.53;;;5.03;;
14611;SDS011;7392;52.078;11.650;2023-05-07T03:33:03;6.63;;;5.43;;
14611;SDS011;7392;52.078;11.650;2023-05-07T03:35:33;5.67;;;5.13;;
14611;SDS011;7392;52.078;11.650;2023-05-07T03:38:01;5.50;;;5.00;;
14611;SDS011;7392;52.078;11.650;2023-05-07T03:40:32;4.87;;;4.37;;
14611;SDS011;7392;52.078;11.650;2023-05-07T03:43:01;4.73;;;4.23;;
14611;SDS011;7392;52.078;11.650;2023-05-07T03:45:30;4.13;;;3.73;;
14611;SDS011;7392;52.078;11.650;2023-05-07T03:48:08;4.00;;;3.70;;
14611;SDS011;7392;52.078;11.650;2023-05-07T03:50:38;3.73;;;3.30;;
14611;SDS011;7392;52.078;11.650;2023-05-07T03:53:06;4.30;;;3.43;;
14611;SDS011;7392;52.078;11.650;2023-05-07T03:55:37;4.07;;;3.47;;
14611;SDS011;7392;52.078;11.650;2023-05-07T03:58:05;4.03;;;3.63;;
14611;SDS011;7392;52.078;11.650;2023-05-07T04:00:33;4.40;;;4.00;;
14611;SDS011;7392;52.078;11.650;2023-05-07T04:03:14;6.63;;;4.50;;
14611;SDS011;7392;52.078;11.650;2023-05-07T04:05:44;6.13;;;4.70;;
14611;SDS011;7392;52.078;11.650;2023-05-07T04:08:12;4.27;;;3.87;;
14611;SDS011;7392;52.078;11.650;2023-05-07T04:10:45;4.93;;;4.43;;
14611;SDS011;7392;52.078;11.650;2023-05-07T04:13:13;5.20;;;4.63;;
14611;SDS011;7392;52.078;11.650;2023-05-07T04:15:41;5.63;;;4.53;;
14611;SDS011;7392;52.078;11.650;2023-05-07T04:18:12;4.87;;;4.37;;
14611;SDS011;7392;52.078;11.650;2023-05-07T04:20:44;4.63;;;3.90;;
14611;SDS011;7392;52.078;11.650;2023-05-07T04:23:13;3.70;;;3.40;;
14611;SDS011;7392;52.078;11.650;2023-05-07T04:25:41;3.90;;;3.50;;
14611;SDS011;7392;52.078;11.650;2023-05-07T04:28:20;4.83;;;4.20;;
14611;SDS011;7392;52.078;11.650;2023-05-07T04:30:48;4.03;;;3.63;;
14611;SDS011;7392;52.078;11.650;2023-05-07T04:33:18;5.57;;;3.97;;
14611;SDS011;7392;52.078;11.650;2023-05-07T04:35:48;4.40;;;4.00;;
14611;SDS011;7392;52.078;11.650;2023-05-07T04:38:16;6.50;;;5.20;;
14611;SDS011;7392;52.078;11.650;2023-05-07T04:40:47;5.60;;;5.00;;
14611;SDS011;7392;52.078;11.650;2023-05-07T04:43:19;5.63;;;5.00;;
14611;SDS011;7392;52.078;11.650;2023-05-07T04:45:49;5.47;;;4.83;;
14611;SDS011;7392;52.078;11.650;2023-05-07T04:48:19;6.03;;;5.43;;
14611;SDS011;7392;52.078;11.650;2023-05-07T04:50:50;6.40;;;5.80;;
14611;SDS011;7392;52.078;11.650;2023-05-07T04:53:19;6.50;;;5.40;;
14611;SDS011;7392;52.078;11.650;2023-05-07T04:55:49;6.63;;;5.37;;
14611;SDS011;7392;52.078;11.650;2023-05-07T04:58:22;5.93;;;5.33;;
14611;SDS011;7392;52.078;11.650;2023-05-07T05:00:51;4.60;;;4.13;;
14611;SDS011;7392;52.078;11.650;2023-05-07T05:03:19;5.33;;;4.83;;
14611;SDS011;7392;52.078;11.650;2023-05-07T05:05:50;4.77;;;4.23;;
14611;SDS011;7392;52.078;11.650;2023-05-07T05:08:20;5.13;;;4.50;;
14611;SDS011;7392;52.078;11.650;2023-05-07T05:10:48;4.40;;;4.00;;
14611;SDS011;7392;52.078;11.650;2023-05-07T05:13:16;5.67;;;4.90;;
14611;SDS011;7392;52.078;11.650;2023-05-07T05:15:45;5.03;;;4.53;;
14611;SDS011;7392;52.078;11.650;2023-05-07T05:18:14;6.27;;;4.73;;
14611;SDS011;7392;52.078;11.650;2023-05-07T05:20:41;4.87;;;4.37;;
14611;SDS011;7392;52.078;11.650;2023-05-07T05:23:12;4.57;;;4.10;;
14611;SDS011;7392;52.078;11.650;2023-05-07T05:25:40;5.13;;;3.80;;
14611;SDS011;7392;52.078;11.650;2023-05-07T05:28:10;5.47;;;3.63;;
14611;SDS011;7392;52.078;11.650;2023-05-07T05:30:38;4.10;;;3.70;;
14611;SDS011;7392;52.078;11.650;2023-05-07T05:33:08;4.03;;;3.60;;
14611;SDS011;7392;52.078;11.650;2023-05-07T05:35:37;3.60;;;3.30;;
14611;SDS011;7392;52.078;11.650;2023-05-07T05:38:09;4.17;;;3.73;;
14611;SDS011;7392;52.078;11.650;2023-05-07T05:40:40;3.63;;;3.33;;
14611;SDS011;7392;52.078;11.650;2023-05-07T05:43:08;3.80;;;3.47;;
14611;SDS011;7392;52.078;11.650;2023-05-07T05:45:37;3.47;;;3.10;;
14611;SDS011;7392;52.078;11.650;2023-05-07T05:48:05;3.40;;;3.10;;
14611;SDS011;7392;52.078;11.650;2023-05-07T05:50:36;3.67;;;3.33;;
14611;SDS011;7392;52.078;11.650;2023-05-07T05:53:05;3.30;;;3.00;;
14611;SDS011;7392;52.078;11.650;2023-05-07T05:55:34;3.40;;;3.10;;
14611;SDS011;7392;52.078;11.650;2023-05-07T05:58:03;3.87;;;3.57;;
14611;SDS011;7392;52.078;11.650;2023-05-07T06:00:35;3.50;;;3.20;;
14611;SDS011;7392;52.078;11.650;2023-05-07T06:03:04;4.73;;;3.50;;
14611;SDS011;7392;52.078;11.650;2023-05-07T06:05:34;4.63;;;4.10;;
14611;SDS011;7392;52.078;11.650;2023-05-07T06:08:02;4.20;;;3.80;;
14611;SDS011;7392;52.078;11.650;2023-05-07T06:10:32;3.70;;;3.40;;
14611;SDS011;7392;52.078;11.650;2023-05-07T06:13:01;3.70;;;3.40;;
14611;SDS011;7392;52.078;11.650;2023-05-07T06:15:31;3.67;;;3.37;;
14611;SDS011;7392;52.078;11.650;2023-05-07T06:18:04;3.57;;;3.27;;
14611;SDS011;7392;52.078;11.650;2023-05-07T06:20:34;5.07;;;3.80;;
14611;SDS011;7392;52.078;11.650;2023-05-07T06:23:04;4.53;;;4.00;;
14611;SDS011;7392;52.078;11.650;2023-05-07T06:25:33;4.13;;;3.73;;
14611;SDS011;7392;52.078;11.650;2023-05-07T06:28:02;4.27;;;3.87;;
14611;SDS011;7392;52.078;11.650;2023-05-07T06:30:32;4.30;;;3.90;;
14611;SDS011;7392;52.078;11.650;2023-05-07T06:33:03;3.87;;;3.50;;
14611;SDS011;7392;52.078;11.650;2023-05-07T06:35:32;3.37;;;3.07;;
14611;SDS011;7392;52.078;11.650;2023-05-07T06:37:59;4.30;;;3.77;;
14611;SDS011;7392;52.078;11.650;2023-05-07T06:40:30;3.83;;;3.50;;
14611;SDS011;7392;52.078;11.650;2023-05-07T06:42:59;3.93;;;3.63;;
14611;SDS011;7392;52.078;11.650;2023-05-07T06:45:36;4.37;;;3.97;;
14611;SDS011;7392;52.078;11.650;2023-05-07T06:48:05;3.90;;;3.50;;
14611;SDS011;7392;52.078;11.650;2023-05-07T06:50:42;4.10;;;3.73;;
14611;SDS011;7392;52.078;11.650;2023-05-07T06:53:10;4.33;;;3.93;;
14611;SDS011;7392;52.078;11.650;2023-05-07T06:55:38;4.50;;;4.10;;
14611;SDS011;7392;52.078;11.650;2023-05-07T06:58:06;5.60;;;4.40;;
14611;SDS011;7392;52.078;11.650;2023-05-07T07:00:35;5.07;;;4.63;;
14611;SDS011;7392;52.078;11.650;2023-05-07T07:03:03;5.17;;;4.47;;
14611;SDS011;7392;52.078;11.650;2023-05-07T07:05:32;5.07;;;4.57;;
14611;SDS011;7392;52.078;11.650;2023-05-07T07:08:02;4.80;;;4.30;;
14611;SDS011;7392;52.078;11.650;2023-05-07T07:10:30;4.43;;;4.03;;
14611;SDS011;7392;52.078;11.650;2023-05-07T07:12:58;5.33;;;4.83;;
14611;SDS011;7392;52.078;11.650;2023-05-07T07:15:26;5.10;;;4.60;;
14611;SDS011;7392;52.078;11.650;2023-05-07T07:17:56;5.20;;;4.70;;
14611;SDS011;7392;52.078;11.650;2023-05-07T07:20:24;4.60;;;4.20;;
14611;SDS011;7392;52.078;11.650;2023-05-07T07:22:53;4.50;;;4.10;;
14611;SDS011;7392;52.078;11.650;2023-05-07T07:25:21;4.83;;;4.40;;
14611;SDS011;7392;52.078;11.650;2023-05-07T07:27:50;5.60;;;4.97;;
14611;SDS011;7392;52.078;11.650;2023-05-07T07:30:21;4.87;;;4.37;;
14611;SDS011;7392;52.078;11.650;2023-05-07T07:32:49;5.80;;;5.07;;
14611;SDS011;7392;52.078;11.650;2023-05-07T07:35:20;5.70;;;5.10;;
14611;SDS011;7392;52.078;11.650;2023-05-07T07:37:48;5.80;;;5.10;;
14611;SDS011;7392;52.078;11.650;2023-05-07T07:40:17;5.87;;;5.13;;
14611;SDS011;7392;52.078;11.650;2023-05-07T07:42:45;5.10;;;4.70;;
14611;SDS011;7392;52.078;11.650;2023-05-07T07:45:13;5.60;;;4.73;;
14611;SDS011;7392;52.078;11.650;2023-05-07T07:47:45;5.83;;;5.30;;
14611;SDS011;7392;52.078;11.650;2023-05-07T07:50:13;6.20;;;5.13;;
14611;SDS011;7392;52.078;11.650;2023-05-07T07:53:02;5.17;;;4.67;;
14611;SDS011;7392;52.078;11.650;2023-05-07T07:55:30;5.37;;;4.87;;
14611;SDS011;7392;52.078;11.650;2023-05-07T07:57:59;6.73;;;5.90;;
14611;SDS011;7392;52.078;11.650;2023-05-07T08:00:27;5.37;;;4.87;;
14611;SDS011;7392;52.078;11.650;2023-05-07T08:02:56;4.93;;;4.43;;
14611;SDS011;7392;52.078;11.650;2023-05-07T08:05:29;5.90;;;4.93;;
14611;SDS011;7392;52.078;11.650;2023-05-07T08:07:58;5.57;;;4.97;;
14611;SDS011;7392;52.078;11.650;2023-05-07T08:10:31;5.27;;;4.70;;
14611;SDS011;7392;52.078;11.650;2023-05-07T08:13:06;4.83;;;4.30;;
14611;SDS011;7392;52.078;11.650;2023-05-07T08:15:37;8.07;;;4.70;;
14611;SDS011;7392;52.078;11.650;2023-05-07T08:18:05;5.40;;;4.90;;
14611;SDS011;7392;52.078;11.650;2023-05-07T08:20:36;5.30;;;4.80;;
14611;SDS011;7392;52.078;11.650;2023-05-07T08:23:08;4.93;;;4.40;;
14611;SDS011;7392;52.078;11.650;2023-05-07T08:25:39;5.80;;;4.47;;
14611;SDS011;7392;52.078;11.650;2023-05-07T08:28:09;5.03;;;4.53;;
14611;SDS011;7392;52.078;11.650;2023-05-07T08:30:38;5.67;;;4.67;;
14611;SDS011;7392;52.078;11.650;2023-05-07T08:33:08;4.77;;;4.30;;
14611;SDS011;7392;52.078;11.650;2023-05-07T08:35:37;4.93;;;4.53;;
14611;SDS011;7392;52.078;11.650;2023-05-07T08:38:07;6.10;;;5.00;;
14611;SDS011;7392;52.078;11.650;2023-05-07T08:40:36;5.60;;;5.07;;
14611;SDS011;7392;52.078;11.650;2023-05-07T08:43:12;5.63;;;5.13;;
14611;SDS011;7392;52.078;11.650;2023-05-07T08:45:43;5.83;;;4.83;;
14611;SDS011;7392;52.078;11.650;2023-05-07T08:48:15;5.77;;;5.27;;
14611;SDS011;7392;52.078;11.650;2023-05-07T08:50:53;6.23;;;5.40;;
14611;SDS011;7392;52.078;11.650;2023-05-07T08:53:22;5.47;;;4.97;;
14611;SDS011;7392;52.078;11.650;2023-05-07T08:55:52;6.30;;;5.67;;
14611;SDS011;7392;52.078;11.650;2023-05-07T08:58:20;5.90;;;5.30;;
14611;SDS011;7392;52.078;11.650;2023-05-07T09:00:49;6.13;;;5.17;;
14611;SDS011;7392;52.078;11.650;2023-05-07T09:03:20;5.90;;;5.30;;
14611;SDS011;7392;52.078;11.650;2023-05-07T09:05:51;6.07;;;4.77;;
14611;SDS011;7392;52.078;11.650;2023-05-07T09:08:23;6.17;;;5.07;;
14611;SDS011;7392;52.078;11.650;2023-05-07T09:10:56;5.80;;;5.23;;
14611;SDS011;7392;52.078;11.650;2023-05-07T09:13:24;6.03;;;5.43;;
14611;SDS011;7392;52.078;11.650;2023-05-07T09:15:53;5.73;;;5.13;;
14611;SDS011;7392;52.078;11.650;2023-05-07T09:18:23;7.70;;;5.93;;
14611;SDS011;7392;52.078;11.650;2023-05-07T09:20:51;7.63;;;5.93;;
14611;SDS011;7392;52.078;11.650;2023-05-07T09:23:20;6.50;;;5.40;;
14611;SDS011;7392;52.078;11.650;2023-05-07T09:25:48;6.60;;;5.67;;
14611;SDS011;7392;52.078;11.650;2023-05-07T09:28:24;6.13;;;5.53;;
14611;SDS011;7392;52.078;11.650;2023-05-07T09:30:52;5.97;;;5.40;;
14611;SDS011;7392;52.078;11.650;2023-05-07T09:33:21;6.67;;;5.77;;
14611;SDS011;7392;52.078;11.650;2023-05-07T09:35:54;5.63;;;5.03;;
14611;SDS011;7392;52.078;11.650;2023-05-07T09:38:23;6.00;;;5.40;;
14611;SDS011;7392;52.078;11.650;2023-05-07T09:41:01;6.37;;;5.40;;
14611;SDS011;7392;52.078;11.650;2023-05-07T09:43:33;5.67;;;5.10;;
14611;SDS011;7392;52.078;11.650;2023-05-07T09:46:09;6.83;;;5.23;;
14611;SDS011;7392;52.078;11.650;2023-05-07T09:48:53;6.50;;;5.43;;
14611;SDS011;7392;52.078;11.650;2023-05-07T09:51:37;5.17;;;4.67;;
14611;SDS011;7392;52.078;11.650;2023-05-07T09:54:13;5.00;;;4.50;;
14611;SDS011;7392;52.078;11.650;2023-05-07T09:56:48;5.27;;;4.77;;
14611;SDS011;7392;52.078;11.650;2023-05-07T09:59:24;4.63;;;4.23;;
14611;SDS011;7392;52.078;11.650;2023-05-07T10:02:04;4.97;;;4.47;;
14611;SDS011;7392;52.078;11.650;2023-05-07T10:04:44;5.67;;;4.87;;
14611;SDS011;7392;52.078;11.650;2023-05-07T10:07:26;6.83;;;4.90;;
14611;SDS011;7392;52.078;11.650;2023-05-07T10:09:57;5.30;;;4.80;;
14611;SDS011;7392;52.078;11.650;2023-05-07T10:12:35;5.40;;;4.90;;
14611;SDS011;7392;52.078;11.650;2023-05-07T10:15:15;4.97;;;4.27;;
14611;SDS011;7392;52.078;11.650;2023-05-07T10:17:55;5.17;;;4.63;;
14611;SDS011;7392;52.078;11.650;2023-05-07T10:20:25;5.43;;;4.57;;
14611;SDS011;7392;52.078;11.650;2023-05-07T10:22:57;4.80;;;4.13;;
14611;SDS011;7392;52.078;11.650;2023-05-07T10:25:35;4.47;;;4.07;;
14611;SDS011;7392;52.078;11.650;2023-05-07T10:28:10;5.07;;;4.23;;
14611;SDS011;7392;52.078;11.650;2023-05-07T10:30:48;5.03;;;4.53;;
14611;SDS011;7392;52.078;11.650;2023-05-07T10:33:34;5.03;;;4.37;;
14611;SDS011;7392;52.078;11.650;2023-05-07T10:36:04;5.13;;;4.40;;
14611;SDS011;7392;52.078;11.650;2023-05-07T10:38:35;4.93;;;4.43;;
14611;SDS011;7392;52.078;11.650;2023-05-07T10:41:04;4.87;;;4.37;;
14611;SDS011;7392;52.078;11.650;2023-05-07T10:43:39;4.23;;;3.83;;
14611;SDS011;7392;52.078;11.650;2023-05-07T10:46:15;4.93;;;4.43;;
14611;SDS011;7392;52.078;11.650;2023-05-07T10:49:06;6.13;;;4.83;;
14611;SDS011;7392;52.078;11.650;2023-05-07T10:52:11;7.10;;;4.00;;
14611;SDS011;7392;52.078;11.650;2023-05-07T10:54:45;5.00;;;4.50;;
14611;SDS011;7392;52.078;11.650;2023-05-07T10:57:34;4.40;;;3.97;;
14611;SDS011;7392;52.078;11.650;2023-05-07T11:03:23;5.40;;;4.90;;
14611;SDS011;7392;52.078;11.650;2023-05-07T11:06:08;5.43;;;4.27;;
14611;SDS011;7392;52.078;11.650;2023-05-07T11:09:00;5.30;;;4.30;;
14611;SDS011;7392;52.078;11.650;2023-05-07T11:11:44;6.70;;;5.47;;
14611;SDS011;7392;52.078;11.650;2023-05-07T11:14:42;5.53;;;5.03;;
14611;SDS011;7392;52.078;11.650;2023-05-07T11:17:19;5.80;;;4.57;;
14611;SDS011;7392;52.078;11.650;2023-05-07T11:19:56;5.77;;;4.80;;
14611;SDS011;7392;52.078;11.650;2023-05-07T11:22:38;9.07;;;4.50;;
14611;SDS011;7392;52.078;11.650;2023-05-07T11:25:33;5.10;;;4.60;;
14611;SDS011;7392;52.078;11.650;2023-05-07T11:28:10;5.00;;;4.37;;
14611;SDS011;7392;52.078;11.650;2023-05-07T11:30:45;5.17;;;4.67;;
14611;SDS011;7392;52.078;11.650;2023-05-07T11:33:16;5.30;;;4.60;;
14611;SDS011;7392;52.078;11.650;2023-05-07T11:35:49;5.97;;;4.83;;
14611;SDS011;7392;52.078;11.650;2023-05-07T11:38:20;5.70;;;5.20;;
14611;SDS011;7392;52.078;11.650;2023-05-07T11:40:49;5.10;;;4.70;;
14611;SDS011;7392;52.078;11.650;2023-05-07T11:43:18;5.97;;;5.37;;
14611;SDS011;7392;52.078;11.650;2023-05-07T11:45:46;5.87;;;5.23;;
14611;SDS011;7392;52.078;11.650;2023-05-07T11:48:14;6.83;;;4.60;;
14611;SDS011;7392;52.078;11.650;2023-05-07T11:50:53;7.90;;;4.93;;
14611;SDS011;7392;52.078;11.650;2023-05-07T11:53:28;5.03;;;4.50;;
14611;SDS011;7392;52.078;11.650;2023-05-07T11:56:05;6.37;;;4.50;;
14611;SDS011;7392;52.078;11.650;2023-05-07T11:58:34;5.70;;;4.73;;
14611;SDS011;7392;52.078;11.650;2023-05-07T12:01:02;4.80;;;4.07;;
14611;SDS011;7392;52.078;11.650;2023-05-07T12:03:30;4.67;;;3.97;;
14611;SDS011;7392;52.078;11.650;2023-05-07T12:06:03;4.30;;;3.90;;
14611;SDS011;7392;52.078;11.650;2023-05-07T12:08:35;4.70;;;3.90;;
14611;SDS011;7392;52.078;11.650;2023-05-07T12:11:06;4.23;;;3.83;;
14611;SDS011;7392;52.078;11.650;2023-05-07T12:13:36;4.27;;;3.87;;
14611;SDS011;7392;52.078;11.650;2023-05-07T12:16:05;4.53;;;4.13;;
14611;SDS011;7392;52.078;11.650;2023-05-07T12:18:34;4.17;;;3.40;;
14611;SDS011;7392;52.078;11.650;2023-05-07T12:21:05;4.23;;;3.53;;
14611;SDS011;7392;52.078;11.650;2023-05-07T12:23:34;4.40;;;3.83;;
14611;SDS011;7392;52.078;11.650;2023-05-07T12:26:03;4.53;;;3.97;;
14611;SDS011;7392;52.078;11.650;2023-05-07T12:28:36;4.20;;;3.80;;
14611;SDS011;7392;52.078;11.650;2023-05-07T12:31:06;4.93;;;3.77;;
14611;SDS011;7392;52.078;11.650;2023-05-07T12:33:35;5.10;;;3.60;;
14611;SDS011;7392;52.078;11.650;2023-05-07T12:36:05;4.37;;;3.97;;
14611;SDS011;7392;52.078;11.650;2023-05-07T12:38:35;3.93;;;3.50;;
14611;SDS011;7392;52.078;11.650;2023-05-07T12:41:04;4.87;;;3.80;;
14611;SDS011;7392;52.078;11.650;2023-05-07T12:43:33;4.00;;;3.70;;
14611;SDS011;7392;52.078;11.650;2023-05-07T12:46:03;4.00;;;3.60;;
14611;SDS011;7392;52.078;11.650;2023-05-07T12:48:32;4.53;;;3.83;;
14611;SDS011;7392;52.078;11.650;2023-05-07T12:51:00;5.60;;;3.70;;
14611;SDS011;7392;52.078;11.650;2023-05-07T12:53:30;3.93;;;3.43;;
14611;SDS011;7392;52.078;11.650;2023-05-07T12:55:58;4.87;;;4.30;;
14611;SDS011;7392;52.078;11.650;2023-05-07T12:58:27;4.30;;;3.87;;
14611;SDS011;7392;52.078;11.650;2023-05-07T13:00:56;4.27;;;3.87;;
14611;SDS011;7392;52.078;11.650;2023-05-07T13:03:27;4.20;;;3.80;;
14611;SDS011;7392;52.078;11.650;2023-05-07T13:05:57;4.73;;;4.33;;
14611;SDS011;7392;52.078;11.650;2023-05-07T13:08:26;4.30;;;3.90;;
14611;SDS011;7392;52.078;11.650;2023-05-07T13:10:57;4.30;;;3.90;;
14611;SDS011;7392;52.078;11.650;2023-05-07T13:13:29;5.03;;;3.90;;
14611;SDS011;7392;52.078;11.650;2023-05-07T13:15:58;4.00;;;3.70;;
14611;SDS011;7392;52.078;11.650;2023-05-07T13:18:27;5.23;;;4.10;;
14611;SDS011;7392;52.078;11.650;2023-05-07T13:20:56;4.73;;;4.33;;
14611;SDS011;7392;52.078;11.650;2023-05-07T13:23:25;4.87;;;4.33;;
14611;SDS011;7392;52.078;11.650;2023-05-07T13:25:53;5.13;;;4.67;;
14611;SDS011;7392;52.078;11.650;2023-05-07T13:28:23;5.40;;;4.90;;
14611;SDS011;7392;52.078;11.650;2023-05-07T13:30:52;5.87;;;5.27;;
14611;SDS011;7392;52.078;11.650;2023-05-07T13:33:21;5.03;;;4.53;;
14611;SDS011;7392;52.078;11.650;2023-05-07T13:35:50;4.97;;;4.23;;
14611;SDS011;7392;52.078;11.650;2023-05-07T13:38:18;5.47;;;4.87;;
14611;SDS011;7392;52.078;11.650;2023-05-07T13:40:48;5.53;;;5.03;;
14611;SDS011;7392;52.078;11.650;2023-05-07T13:43:16;5.50;;;5.00;;
14611;SDS011;7392;52.078;11.650;2023-05-07T13:45:46;5.03;;;4.30;;
14611;SDS011;7392;52.078;11.650;2023-05-07T13:48:14;4.43;;;4.03;;
14611;SDS011;7392;52.078;11.650;2023-05-07T13:50:42;5.23;;;4.10;;
14611;SDS011;7392;52.078;11.650;2023-05-07T13:53:10;4.47;;;4.07;;
14611;SDS011;7392;52.078;11.650;2023-05-07T13:55:37;4.07;;;3.67;;
14611;SDS011;7392;52.078;11.650;2023-05-07T13:58:05;4.10;;;3.70;;
14611;SDS011;7392;52.078;11.650;2023-05-07T14:00:33;3.73;;;3.23;;
14611;SDS011;7392;52.078;11.650;2023-05-07T14:03:03;5.00;;;3.67;;
14611;SDS011;7392;52.078;11.650;2023-05-07T14:05:32;4.00;;;3.60;;
14611;SDS011;7392;52.078;11.650;2023-05-07T14:08:02;4.60;;;4.10;;
14611;SDS011;7392;52.078;11.650;2023-05-07T14:10:31;3.60;;;3.30;;
14611;SDS011;7392;52.078;11.650;2023-05-07T14:13:00;3.73;;;3.30;;
14611;SDS011;7392;52.078;11.650;2023-05-07T14:15:28;4.20;;;3.80;;
14611;SDS011;7392;52.078;11.650;2023-05-07T14:17:56;3.60;;;3.30;;
14611;SDS011;7392;52.078;11.650;2023-05-07T14:20:26;3.70;;;3.40;;
14611;SDS011;7392;52.078;11.650;2023-05-07T14:22:54;4.13;;;3.43;;
14611;SDS011;7392;52.078;11.650;2023-05-07T14:25:23;3.47;;;3.17;;
14611;SDS011;7392;52.078;11.650;2023-05-07T14:27:51;3.43;;;2.97;;
14611;SDS011;7392;52.078;11.650;2023-05-07T14:30:19;3.67;;;2.93;;
14611;SDS011;7392;52.078;11.650;2023-05-07T14:32:48;3.30;;;2.97;;
14611;SDS011;7392;52.078;11.650;2023-05-07T14:35:17;3.43;;;2.93;;
14611;SDS011;7392;52.078;11.650;2023-05-07T14:37:47;3.13;;;2.83;;
14611;SDS011;7392;52.078;11.650;2023-05-07T14:40:18;3.77;;;3.33;;
14611;SDS011;7392;52.078;11.650;2023-05-07T14:42:45;3.13;;;2.83;;
14611;SDS011;7392;52.078;11.650;2023-05-07T14:45:15;2.63;;;2.43;;
14611;SDS011;7392;52.078;11.650;2023-05-07T14:47:43;4.00;;;2.70;;
14611;SDS011;7392;52.078;11.650;2023-05-07T14:50:19;3.00;;;2.70;;
14611;SDS011;7392;52.078;11.650;2023-05-07T14:52:49;3.27;;;2.70;;
14611;SDS011;7392;52.078;11.650;2023-05-07T14:55:16;3.03;;;2.63;;
14611;SDS011;7392;52.078;11.650;2023-05-07T14:57:47;2.87;;;2.57;;
14611;SDS011;7392;52.078;11.650;2023-05-07T15:00:17;2.97;;;2.40;;
14611;SDS011;7392;52.078;11.650;2023-05-07T15:02:49;2.40;;;2.20;;
14611;SDS011;7392;52.078;11.650;2023-05-07T15:05:16;3.17;;;2.40;;
14611;SDS011;7392;52.078;11.650;2023-05-07T15:07:45;2.40;;;2.20;;
14611;SDS011;7392;52.078;11.650;2023-05-07T15:10:14;2.57;;;2.37;;
14611;SDS011;7392;52.078;11.650;2023-05-07T15:12:42;2.93;;;2.60;;
14611;SDS011;7392;52.078;11.650;2023-05-07T15:15:10;2.50;;;2.30;;